Time;durP1;ratioP1;P1;durP2;ratioP2;P2;SDS_P1;SDS_P2;PMS_P1;PMS_P2;Temp;Humidity;BMP_temperature;BMP_pressure;BME280_temperature;BME280_humidity;BME280_pressure;Samples;Min_cycle;Max_cycle;Signal;HPM_P1;HPM_P2
2021/10/26 00:00:18;;;;;;;36.80;32.70;;;11.70;99.90;;;;;;5057236;28;20692;-68
2021/10/26 00:02:46;;;;;;;38.85;32.25;;;11.60;99.90;;;;;;5054441;28;20044;-68
2021/10/26 00:05:12;;;;;;;36.83;32.17;;;11.60;99.90;;;;;;5055080;28;20047;-68
2021/10/26 00:07:38;;;;;;;44.22;32.90;;;11.60;99.90;;;;;;5055729;28;20469;-68
2021/10/26 00:10:06;;;;;;;38.53;31.98;;;11.60;99.90;;;;;;5086335;28;20051;-68
2021/10/26 00:12:31;;;;;;;42.53;34.63;;;11.60;99.90;;;;;;5057216;28;20368;-68
2021/10/26 00:14:58;;;;;;;45.63;34.78;;;11.60;99.90;;;;;;5057021;28;20054;-68
2021/10/26 00:17:24;;;;;;;47.03;35.15;;;11.60;99.90;;;;;;5057544;28;20552;-68
2021/10/26 00:19:49;;;;;;;48.00;34.95;;;11.60;99.90;;;;;;5055839;28;20040;-68
2021/10/26 00:22:15;;;;;;;41.53;35.10;;;11.60;99.90;;;;;;5052523;28;20087;-68
2021/10/26 00:24:40;;;;;;;47.13;36.05;;;11.60;99.90;;;;;;5054298;28;20068;-68
2021/10/26 00:27:06;;;;;;;43.83;35.83;;;11.60;99.90;;;;;;5055420;28;20045;-68
2021/10/26 00:29:32;;;;;;;51.65;35.72;;;11.60;99.90;;;;;;5056832;28;20045;-68
2021/10/26 00:31:57;;;;;;;46.58;34.92;;;11.60;99.90;;;;;;5057710;28;20029;-68
2021/10/26 00:34:23;;;;;;;47.50;34.97;;;11.60;99.90;;;;;;5060143;28;20486;-68
2021/10/26 00:36:48;;;;;;;46.17;36.22;;;11.70;99.90;;;;;;5058052;28;20033;-68
2021/10/26 00:39:15;;;;;;;47.90;36.55;;;11.70;99.90;;;;;;5056898;28;20130;-68
2021/10/26 00:41:40;;;;;;;47.33;37.17;;;11.60;99.90;;;;;;5057853;28;20049;-68
2021/10/26 00:44:06;;;;;;;47.95;36.13;;;11.60;99.90;;;;;;5056116;28;20051;-68
2021/10/26 00:46:35;;;;;;;52.03;36.88;;;11.60;99.90;;;;;;5060198;28;20040;-68
2021/10/26 00:49:04;;;;;;;44.72;35.30;;;11.70;99.90;;;;;;5057321;28;20048;-68
2021/10/26 00:51:31;;;;;;;51.25;38.13;;;11.60;99.90;;;;;;5058326;28;20048;-68
2021/10/26 00:53:58;;;;;;;49.50;36.28;;;11.60;99.90;;;;;;5058893;28;20148;-68
2021/10/26 00:56:25;;;;;;;47.95;37.17;;;11.70;99.90;;;;;;5058112;28;20040;-68
2021/10/26 00:58:52;;;;;;;44.53;35.78;;;11.70;99.90;;;;;;5058801;28;20053;-68
2021/10/26 01:01:19;;;;;;;47.15;34.63;;;11.70;99.90;;;;;;5053200;28;20480;-68
2021/10/26 01:03:45;;;;;;;47.03;36.15;;;11.70;99.90;;;;;;5088896;27;20139;-68
2021/10/26 01:06:11;;;;;;;45.88;34.72;;;11.60;99.90;;;;;;5091699;27;20666;-68
2021/10/26 01:08:38;;;;;;;46.10;36.50;;;11.60;99.90;;;;;;5058547;28;20044;-68
2021/10/26 01:11:04;;;;;;;49.60;36.35;;;11.60;99.90;;;;;;5058369;28;20040;-68
2021/10/26 01:13:30;;;;;;;47.78;36.67;;;11.60;99.90;;;;;;5059305;28;20040;-68
2021/10/26 01:15:59;;;;;;;43.70;33.95;;;11.60;99.90;;;;;;5057876;28;20422;-68
2021/10/26 01:18:25;;;;;;;42.92;33.78;;;11.60;99.90;;;;;;5057515;28;20044;-68
2021/10/26 01:20:55;;;;;;;46.15;35.65;;;11.60;99.90;;;;;;5056575;28;20052;-68
2021/10/26 01:23:22;;;;;;;47.47;35.03;;;11.50;99.90;;;;;;5057403;28;20550;-68
2021/10/26 01:25:48;;;;;;;45.78;34.70;;;11.50;99.90;;;;;;5056978;28;20068;-68
2021/10/26 01:28:14;;;;;;;51.22;36.17;;;11.50;99.90;;;;;;5061557;28;20044;-68
2021/10/26 01:30:41;;;;;;;51.90;36.85;;;11.50;99.90;;;;;;5058553;28;20033;-68
2021/10/26 01:33:07;;;;;;;60.10;35.53;;;11.50;99.90;;;;;;5058800;28;20045;-68
2021/10/26 01:35:34;;;;;;;53.50;35.38;;;11.40;99.90;;;;;;5089930;27;20145;-68
2021/10/26 01:38:01;;;;;;;45.50;34.72;;;11.40;99.90;;;;;;5087118;27;20058;-68
2021/10/26 01:40:27;;;;;;;55.40;37.47;;;11.40;99.90;;;;;;5058485;28;20045;-68
2021/10/26 01:42:52;;;;;;;49.33;37.05;;;11.30;99.90;;;;;;5056696;28;20052;-68
2021/10/26 01:45:19;;;;;;;53.38;37.95;;;11.30;99.90;;;;;;5057245;28;20049;-68
2021/10/26 01:47:45;;;;;;;50.30;36.53;;;11.30;99.90;;;;;;5043858;28;20087;-68
2021/10/26 01:50:13;;;;;;;51.17;36.45;;;11.30;99.90;;;;;;5056700;28;20033;-68
2021/10/26 01:52:39;;;;;;;50.78;38.17;;;11.30;99.90;;;;;;5057142;28;20036;-68
2021/10/26 01:55:06;;;;;;;51.92;39.22;;;11.20;99.90;;;;;;5061050;28;20045;-68
2021/10/26 01:57:33;;;;;;;48.53;38.25;;;11.30;99.90;;;;;;5089026;27;20037;-68
2021/10/26 01:59:59;;;;;;;58.30;36.45;;;11.20;99.90;;;;;;5056563;28;20080;-68
2021/10/26 02:02:26;;;;;;;49.08;36.15;;;11.20;99.90;;;;;;5055575;28;20076;-68
2021/10/26 02:04:52;;;;;;;55.65;39.53;;;11.20;99.90;;;;;;5056187;28;20048;-68
2021/10/26 02:07:18;;;;;;;52.45;36.50;;;11.20;99.90;;;;;;5056743;28;20037;-68
2021/10/26 02:09:44;;;;;;;48.38;35.22;;;11.30;99.90;;;;;;5058521;28;20056;-68
2021/10/26 02:12:10;;;;;;;54.60;37.38;;;11.30;99.90;;;;;;5054440;28;20479;-68
2021/10/26 02:14:36;;;;;;;53.33;37.75;;;11.20;99.90;;;;;;5056737;28;20098;-68
2021/10/26 02:17:03;;;;;;;60.55;37.65;;;11.30;99.90;;;;;;5089284;28;20048;-68
2021/10/26 02:19:28;;;;;;;57.17;37.22;;;11.20;99.90;;;;;;5055815;28;20082;-68
2021/10/26 02:21:54;;;;;;;50.25;36.58;;;11.30;99.90;;;;;;5055438;28;20072;-68
2021/10/26 02:24:20;;;;;;;51.55;36.80;;;11.30;99.90;;;;;;5055277;28;20036;-68
2021/10/26 02:26:46;;;;;;;57.20;39.00;;;11.30;99.90;;;;;;5053281;28;20059;-68
2021/10/26 02:29:12;;;;;;;58.13;38.70;;;11.30;99.90;;;;;;5057120;28;20044;-68
2021/10/26 02:31:38;;;;;;;57.03;36.40;;;11.30;99.90;;;;;;5058458;28;20047;-68
2021/10/26 02:34:05;;;;;;;52.17;38.33;;;11.30;99.90;;;;;;5064046;28;20036;-68
2021/10/26 02:36:31;;;;;;;55.45;37.70;;;11.30;99.90;;;;;;5061534;28;20044;-68
2021/10/26 02:38:57;;;;;;;59.47;35.55;;;11.40;99.90;;;;;;5060608;28;20045;-68
2021/10/26 02:41:23;;;;;;;51.75;34.53;;;11.30;99.90;;;;;;5057188;28;20114;-68
2021/10/26 02:43:49;;;;;;;47.95;32.60;;;11.30;99.90;;;;;;5058587;28;20123;-68
2021/10/26 02:46:17;;;;;;;44.00;33.83;;;11.30;99.90;;;;;;5056767;28;20546;-68
2021/10/26 02:48:43;;;;;;;50.70;34.30;;;11.30;99.90;;;;;;5091494;27;20055;-67
2021/10/26 02:51:10;;;;;;;43.55;32.28;;;11.30;99.90;;;;;;5090079;28;20048;-67
2021/10/26 02:53:37;;;;;;;39.28;31.00;;;11.30;99.90;;;;;;5056682;28;20045;-67
2021/10/26 02:56:03;;;;;;;42.25;29.73;;;11.30;99.90;;;;;;5056546;28;20036;-67
2021/10/26 02:58:28;;;;;;;32.55;25.25;;;11.30;99.90;;;;;;5061161;28;20067;-67
2021/10/26 03:00:54;;;;;;;37.42;24.00;;;11.30;99.90;;;;;;5059665;28;20079;-67
2021/10/26 03:03:20;;;;;;;33.40;24.58;;;11.20;99.90;;;;;;5060639;28;20036;-67
2021/10/26 03:05:46;;;;;;;32.08;22.42;;;11.10;99.90;;;;;;5061136;28;20043;-67
2021/10/26 03:08:11;;;;;;;32.78;22.95;;;11.20;99.90;;;;;;5058756;28;20047;-67
2021/10/26 03:10:38;;;;;;;31.00;21.77;;;11.10;99.90;;;;;;5056960;28;20066;-67
2021/10/26 03:13:04;;;;;;;30.85;21.55;;;11.00;99.90;;;;;;5056219;28;20064;-67
2021/10/26 03:15:30;;;;;;;26.67;20.90;;;11.00;99.90;;;;;;5057258;28;20517;-67
2021/10/26 03:17:57;;;;;;;27.35;20.52;;;11.00;99.90;;;;;;5059588;28;20045;-67
2021/10/26 03:20:23;;;;;;;32.05;20.27;;;10.90;99.90;;;;;;5093174;28;20044;-67
2021/10/26 03:22:48;;;;;;;31.42;21.33;;;10.90;99.90;;;;;;5060027;28;20393;-67
2021/10/26 03:25:15;;;;;;;30.02;20.35;;;10.80;99.90;;;;;;5057238;28;20033;-67
2021/10/26 03:27:41;;;;;;;28.13;21.02;;;10.80;99.90;;;;;;5058869;28;20049;-67
2021/10/26 03:30:09;;;;;;;24.88;20.13;;;10.80;99.90;;;;;;5057363;28;20095;-67
2021/10/26 03:32:35;;;;;;;24.55;19.27;;;10.70;99.90;;;;;;5057838;28;20075;-67
2021/10/26 03:35:01;;;;;;;29.45;19.75;;;10.70;99.90;;;;;;5058588;28;20409;-67
2021/10/26 03:37:27;;;;;;;28.10;20.33;;;10.70;99.90;;;;;;5058392;28;20046;-67
2021/10/26 03:39:56;;;;;;;31.27;20.23;;;10.70;99.90;;;;;;5059531;28;20037;-67
2021/10/26 03:42:25;;;;;;;30.30;20.23;;;10.70;99.90;;;;;;5090898;28;20041;-67
2021/10/26 03:44:52;;;;;;;29.55;19.63;;;10.60;99.90;;;;;;5056463;28;20051;-67
2021/10/26 03:47:19;;;;;;;29.58;20.55;;;10.60;99.90;;;;;;5054763;28;20052;-67
2021/10/26 03:49:45;;;;;;;32.60;22.90;;;10.60;99.90;;;;;;5056624;28;20114;-67
2021/10/26 03:52:11;;;;;;;38.97;24.05;;;10.60;99.90;;;;;;5059158;28;20047;-67
2021/10/26 03:54:38;;;;;;;36.25;23.58;;;10.50;99.90;;;;;;5057481;28;20119;-67
2021/10/26 03:57:08;;;;;;;36.63;24.40;;;10.50;99.90;;;;;;5093922;28;20124;-67
2021/10/26 03:59:35;;;;;;;33.05;24.17;;;10.50;99.90;;;;;;5060309;28;20037;-67
2021/10/26 04:02:07;;;;;;;29.60;22.00;;;10.50;99.90;;;;;;5055464;28;20529;-67
2021/10/26 04:04:33;;;;;;;41.25;28.35;;;10.50;99.90;;;;;;5059505;28;20079;-67
2021/10/26 04:07:01;;;;;;;40.30;27.40;;;10.50;99.90;;;;;;5058118;28;20076;-67
2021/10/26 04:09:41;;;;;;;42.17;29.60;;;10.50;99.90;;;;;;5059531;28;20049;-67
2021/10/26 04:12:25;;;;;;;55.05;31.77;;;10.50;99.90;;;;;;5058562;28;20467;-67
2021/10/26 04:14:55;;;;;;;48.28;32.45;;;10.90;99.90;;;;;;5063135;28;20124;-67
2021/10/26 04:17:24;;;;;;;54.60;34.05;;;10.40;99.90;;;;;;5057378;28;20040;-67
2021/10/26 04:19:54;;;;;;;52.13;33.88;;;10.40;99.90;;;;;;5060557;28;20402;-67
2021/10/26 04:22:21;;;;;;;54.03;33.60;;;10.40;99.90;;;;;;5060850;28;20063;-67
2021/10/26 04:24:49;;;;;;;54.22;34.60;;;10.40;99.90;;;;;;5059552;28;20045;-67
2021/10/26 04:27:15;;;;;;;60.20;36.70;;;10.30;99.90;;;;;;5062776;28;20146;-67
2021/10/26 04:29:42;;;;;;;61.00;37.22;;;10.30;99.90;;;;;;5061950;28;20547;-67
2021/10/26 04:32:09;;;;;;;58.30;35.90;;;10.40;99.90;;;;;;5063341;28;20081;-67
2021/10/26 04:34:37;;;;;;;59.40;36.83;;;10.30;99.90;;;;;;5064887;28;20043;-67
2021/10/26 04:37:06;;;;;;;56.40;37.28;;;10.30;99.90;;;;;;5066691;28;20394;-67
2021/10/26 04:39:33;;;;;;;60.95;37.67;;;10.30;99.90;;;;;;5065035;28;20103;-67
2021/10/26 04:42:00;;;;;;;57.45;36.38;;;10.30;99.90;;;;;;5066063;28;20110;-67
2021/10/26 04:44:25;;;;;;;58.28;36.42;;;10.30;99.90;;;;;;5066079;28;20067;-67
2021/10/26 04:46:51;;;;;;;53.10;34.33;;;10.20;99.90;;;;;;5047398;28;20479;-67
2021/10/26 04:49:16;;;;;;;53.00;34.13;;;10.20;99.90;;;;;;5057576;28;20201;-67
2021/10/26 04:51:42;;;;;;;64.00;37.28;;;10.30;99.90;;;;;;5061068;28;20041;-67
2021/10/26 04:54:08;;;;;;;68.05;38.75;;;10.30;99.90;;;;;;5093089;27;20375;-67
2021/10/26 04:56:35;;;;;;;63.30;38.85;;;10.40;99.90;;;;;;5066842;28;20032;-67
2021/10/26 04:59:01;;;;;;;70.60;38.60;;;10.40;99.90;;;;;;5043972;28;20052;-67
2021/10/26 05:01:26;;;;;;;69.28;39.75;;;10.50;99.90;;;;;;5092212;27;20463;-67
2021/10/26 05:03:52;;;;;;;68.07;37.97;;;10.50;99.90;;;;;;5059260;28;20047;-67
2021/10/26 05:06:17;;;;;;;70.93;38.58;;;10.50;99.90;;;;;;5061339;28;20044;-67
2021/10/26 05:08:45;;;;;;;74.20;39.80;;;10.50;99.90;;;;;;5058964;28;20167;-67
2021/10/26 05:11:11;;;;;;;69.03;39.90;;;10.60;99.90;;;;;;5060422;28;20071;-67
2021/10/26 05:13:36;;;;;;;70.50;38.00;;;10.60;99.90;;;;;;5062154;28;20064;-67
2021/10/26 05:16:02;;;;;;;65.80;36.83;;;10.60;99.90;;;;;;5056470;28;20032;-67
2021/10/26 05:18:30;;;;;;;75.45;38.65;;;10.60;99.90;;;;;;5058365;28;20489;-67
2021/10/26 05:20:57;;;;;;;70.85;40.05;;;10.60;99.90;;;;;;5057700;28;20051;-67
2021/10/26 05:23:23;;;;;;;74.93;38.67;;;10.60;99.90;;;;;;5054199;28;20036;-67
2021/10/26 05:25:52;;;;;;;69.45;38.45;;;10.60;99.90;;;;;;5057509;28;20044;-67
2021/10/26 05:28:17;;;;;;;67.07;37.75;;;10.70;99.90;;;;;;5058097;28;20068;-67
2021/10/26 05:30:43;;;;;;;67.65;36.90;;;10.60;99.90;;;;;;5052728;28;20616;-67
2021/10/26 05:33:09;;;;;;;70.00;37.92;;;10.70;99.90;;;;;;5088165;28;20040;-67
2021/10/26 05:35:35;;;;;;;72.95;37.67;;;10.70;99.90;;;;;;5056134;28;20498;-67
2021/10/26 05:38:01;;;;;;;78.00;38.67;;;10.70;99.90;;;;;;5054280;28;20048;-67
2021/10/26 05:40:27;;;;;;;62.05;36.42;;;10.70;99.90;;;;;;5041248;28;20055;-67
2021/10/26 05:42:52;;;;;;;70.28;37.72;;;10.70;99.90;;;;;;5056392;28;20033;-67
2021/10/26 05:45:18;;;;;;;79.68;38.92;;;10.70;99.90;;;;;;5055728;28;20107;-67
2021/10/26 05:47:45;;;;;;;73.72;38.70;;;10.70;99.90;;;;;;5057160;28;20040;-68
2021/10/26 05:50:11;;;;;;;70.50;36.58;;;10.70;99.90;;;;;;5056675;28;20045;-67
2021/10/26 05:52:37;;;;;;;74.88;36.97;;;10.70;99.90;;;;;;5053837;28;20075;-67
2021/10/26 05:55:03;;;;;;;84.18;40.47;;;10.80;99.90;;;;;;5056496;28;20999;-67
2021/10/26 05:57:31;;;;;;;74.68;38.90;;;10.80;99.90;;;;;;5054166;28;20064;-66
2021/10/26 05:59:57;;;;;;;76.55;37.20;;;10.80;99.90;;;;;;5053699;28;20081;-66
2021/10/26 06:02:23;;;;;;;78.15;39.85;;;10.90;99.90;;;;;;5053626;28;20048;-66
2021/10/26 06:04:49;;;;;;;81.53;38.92;;;10.90;99.90;;;;;;5056576;28;20040;-66
2021/10/26 06:07:14;;;;;;;77.35;39.00;;;10.90;99.90;;;;;;5077984;27;20548;-66
2021/10/26 06:09:40;;;;;;;76.03;37.53;;;10.90;99.90;;;;;;5046428;28;20079;-66
2021/10/26 06:12:09;;;;;;;72.43;36.85;;;10.90;99.90;;;;;;5051098;28;20093;-66
2021/10/26 06:14:35;;;;;;;86.25;39.60;;;10.90;99.90;;;;;;5049181;28;20124;-66
2021/10/26 06:17:01;;;;;;;76.15;39.08;;;10.90;99.90;;;;;;5047702;28;20063;-66
2021/10/26 06:19:27;;;;;;;78.35;38.17;;;10.90;99.90;;;;;;5065453;28;20040;-66
2021/10/26 06:21:53;;;;;;;77.57;38.72;;;10.90;99.90;;;;;;5047929;28;20051;-66
2021/10/26 06:24:18;;;;;;;66.90;36.70;;;11.00;99.90;;;;;;5046445;28;20044;-66
2021/10/26 06:26:44;;;;;;;72.95;36.90;;;10.90;99.90;;;;;;5051211;28;20044;-66
2021/10/26 06:29:10;;;;;;;66.90;36.38;;;10.90;99.90;;;;;;5046070;28;20053;-66
2021/10/26 06:31:36;;;;;;;75.07;37.67;;;10.90;99.90;;;;;;5046763;28;20043;-66
2021/10/26 06:34:02;;;;;;;69.70;38.42;;;11.00;99.90;;;;;;5048946;28;20127;-66
2021/10/26 06:36:28;;;;;;;62.33;37.53;;;11.00;99.90;;;;;;5045947;28;20046;-67
2021/10/26 06:38:54;;;;;;;70.80;39.63;;;11.00;99.90;;;;;;5053192;28;20374;-67
2021/10/26 06:41:20;;;;;;;66.40;37.28;;;11.00;99.90;;;;;;5085699;27;20041;-67
2021/10/26 06:43:47;;;;;;;69.00;38.10;;;11.00;99.90;;;;;;5056800;28;20143;-67
2021/10/26 06:46:13;;;;;;;73.68;38.63;;;11.00;99.90;;;;;;5051025;28;21037;-67
2021/10/26 06:48:39;;;;;;;61.88;37.72;;;11.10;99.90;;;;;;5051318;28;20475;-67
2021/10/26 06:51:05;;;;;;;69.30;37.40;;;11.10;99.90;;;;;;5052426;28;20037;-67
2021/10/26 06:53:35;;;;;;;61.90;35.97;;;11.10;99.90;;;;;;5052218;28;21027;-66
2021/10/26 06:56:05;;;;;;;65.40;37.75;;;11.10;99.90;;;;;;5055259;28;20041;-67
2021/10/26 06:58:31;;;;;;;69.35;37.28;;;11.10;99.90;;;;;;5081484;28;20070;-67
2021/10/26 07:00:56;;;;;;;69.93;38.38;;;11.10;99.90;;;;;;5045170;28;20818;-67
2021/10/26 07:03:22;;;;;;;63.10;37.60;;;11.10;99.90;;;;;;5048434;28;20040;-67
2021/10/26 07:05:48;;;;;;;62.70;36.65;;;11.10;99.90;;;;;;5047639;28;20130;-67
2021/10/26 07:08:13;;;;;;;61.70;35.33;;;11.10;99.90;;;;;;5047015;28;20148;-67
2021/10/26 07:10:39;;;;;;;60.35;36.28;;;11.10;99.90;;;;;;5045484;28;20161;-67
2021/10/26 07:13:14;;;;;;;64.75;36.42;;;11.10;99.90;;;;;;5047219;28;20033;-67
2021/10/26 07:15:40;;;;;;;65.70;35.47;;;11.10;99.90;;;;;;5047261;28;20560;-67
2021/10/26 07:18:06;;;;;;;51.00;33.80;;;11.10;99.90;;;;;;5046022;28;20044;-67
2021/10/26 07:20:32;;;;;;;53.05;33.42;;;11.10;99.90;;;;;;5047436;28;20044;-67
2021/10/26 07:22:58;;;;;;;53.25;33.35;;;11.10;99.90;;;;;;5048357;28;20072;-67
2021/10/26 07:25:25;;;;;;;49.75;33.00;;;11.20;99.90;;;;;;5043599;28;20118;-67
2021/10/26 07:27:58;;;;;;;51.83;32.92;;;11.20;99.90;;;;;;5045336;28;20126;-67
2021/10/26 07:30:27;;;;;;;56.65;34.08;;;11.20;99.90;;;;;;5046258;28;21700;-67
2021/10/26 07:32:56;;;;;;;51.00;32.90;;;11.20;99.90;;;;;;5048103;28;20036;-66
2021/10/26 07:35:41;;;;;;;51.28;32.08;;;11.20;99.90;;;;;;5046976;28;20052;-67
2021/10/26 07:38:08;;;;;;;50.90;32.25;;;11.20;99.90;;;;;;5047749;28;20123;-67
2021/10/26 07:40:33;;;;;;;54.17;32.38;;;11.20;99.90;;;;;;5048364;28;20045;-67
2021/10/26 07:42:59;;;;;;;52.08;31.65;;;11.30;99.90;;;;;;5052102;28;20047;-67
2021/10/26 07:45:25;;;;;;;48.05;29.88;;;11.30;99.90;;;;;;5052323;28;20049;-67
2021/10/26 07:47:51;;;;;;;42.90;29.45;;;11.30;99.90;;;;;;5049490;28;20049;-66
2021/10/26 07:50:17;;;;;;;48.05;29.73;;;11.30;99.90;;;;;;5049701;28;20044;-67
2021/10/26 07:52:42;;;;;;;51.95;32.58;;;11.30;99.90;;;;;;5053475;28;20501;-67
2021/10/26 07:55:09;;;;;;;49.33;31.75;;;11.30;99.90;;;;;;5049432;28;20060;-66
2021/10/26 07:57:34;;;;;;;49.33;30.65;;;11.40;99.90;;;;;;5050675;28;20078;-66
2021/10/26 08:00:01;;;;;;;45.13;30.55;;;11.40;99.90;;;;;;5050936;28;20401;-66
2021/10/26 08:02:26;;;;;;;50.92;29.10;;;11.50;99.90;;;;;;5051423;28;20087;-66
2021/10/26 08:04:56;;;;;;;43.28;29.33;;;11.40;99.90;;;;;;5049234;28;20660;-66
2021/10/26 08:07:24;;;;;;;41.00;27.58;;;11.40;99.90;;;;;;5050258;28;20043;-66
2021/10/26 08:09:51;;;;;;;46.88;28.45;;;11.50;99.90;;;;;;5054925;28;20082;-66
2021/10/26 08:12:21;;;;;;;44.03;29.80;;;11.50;99.90;;;;;;5052366;28;20493;-66
2021/10/26 08:14:47;;;;;;;40.97;27.58;;;11.50;99.90;;;;;;5053466;28;20051;-66
2021/10/26 08:17:13;;;;;;;43.47;28.90;;;11.50;99.90;;;;;;5052219;28;20049;-66
2021/10/26 08:19:44;;;;;;;42.45;28.05;;;11.60;99.90;;;;;;5052086;28;20106;-66
2021/10/26 08:22:16;;;;;;;45.03;28.80;;;11.60;99.90;;;;;;5050083;28;20043;-66
2021/10/26 08:24:44;;;;;;;45.78;27.08;;;11.70;99.90;;;;;;5075553;28;20483;-66
2021/10/26 08:27:14;;;;;;;39.80;26.95;;;11.70;99.90;;;;;;5050232;28;20605;-66
2021/10/26 08:29:46;;;;;;;37.13;27.77;;;11.80;99.90;;;;;;5051597;28;20433;-67
2021/10/26 08:32:31;;;;;;;46.60;27.85;;;11.90;99.90;;;;;;5049465;28;20081;-66
2021/10/26 08:35:31;;;;;;;37.97;26.17;;;11.80;99.90;;;;;;5052465;28;20125;-66
2021/10/26 08:37:50;;;;;;;37.03;25.13;;;11.90;99.90;;;;;;5049354;28;20499;-66
2021/10/26 08:40:17;;;;;;;36.85;25.83;;;11.90;99.90;;;;;;5048750;28;20047;-66
2021/10/26 08:42:48;;;;;;;39.58;25.75;;;12.00;99.90;;;;;;5047222;28;20045;-66
2021/10/26 08:45:15;;;;;;;33.35;24.00;;;12.00;99.90;;;;;;5048373;28;20483;-66
2021/10/26 08:47:44;;;;;;;35.97;25.02;;;12.00;99.90;;;;;;5063740;28;20053;-66
2021/10/26 08:50:09;;;;;;;34.50;23.55;;;12.00;99.90;;;;;;5076877;28;20049;-66
2021/10/26 08:52:36;;;;;;;36.78;24.60;;;12.00;99.90;;;;;;5049934;28;20033;-66
2021/10/26 08:55:06;;;;;;;34.28;24.52;;;12.00;99.90;;;;;;5050647;28;20072;-66
2021/10/26 08:57:33;;;;;;;33.35;22.73;;;12.10;99.90;;;;;;5049046;28;20073;-66
2021/10/26 09:00:05;;;;;;;31.15;20.65;;;12.10;99.90;;;;;;5050361;28;20049;-66
2021/10/26 09:02:42;;;;;;;32.35;22.58;;;12.20;99.90;;;;;;5075617;28;20549;-66
2021/10/26 09:05:10;;;;;;;32.90;22.02;;;12.20;99.90;;;;;;5047451;28;20079;-66
2021/10/26 09:07:36;;;;;;;35.08;20.83;;;12.20;99.90;;;;;;5047050;28;20041;-66
2021/10/26 09:10:13;;;;;;;30.02;21.05;;;12.20;99.90;;;;;;5086272;27;20729;-66
2021/10/26 09:17:56;;;;;;;30.80;19.25;;;12.40;99.90;;;;;;5053465;28;20041;-66
2021/10/26 09:20:29;;;;;;;33.08;19.80;;;12.50;99.90;;;;;;5052691;28;20054;-67
2021/10/26 09:22:57;;;;;;;25.63;18.77;;;12.50;99.90;;;;;;5047068;28;20048;-67
2021/10/26 09:25:40;;;;;;;33.95;20.20;;;12.50;99.90;;;;;;5050804;28;20423;-66
2021/10/26 09:28:17;;;;;;;32.15;21.10;;;12.40;99.90;;;;;;5050452;28;20036;-66
2021/10/26 09:31:01;;;;;;;30.85;21.35;;;12.40;99.90;;;;;;5048038;28;20059;-66
2021/10/26 09:33:35;;;;;;;31.08;21.30;;;12.40;99.90;;;;;;5049882;28;20040;-66
2021/10/26 09:36:23;;;;;;;31.77;21.35;;;12.40;99.90;;;;;;5051516;28;20093;-66
2021/10/26 09:39:07;;;;;;;29.52;21.27;;;12.40;99.90;;;;;;5049426;28;21956;-66
2021/10/26 09:42:01;;;;;;;30.98;22.45;;;12.50;99.90;;;;;;5049018;28;20046;-66
2021/10/26 09:44:32;;;;;;;30.88;21.73;;;12.50;99.90;;;;;;5047253;28;20053;-66
2021/10/26 09:47:24;;;;;;;28.35;20.58;;;12.60;99.90;;;;;;5048445;28;21564;-66
2021/10/26 09:50:03;;;;;;;29.25;19.35;;;12.60;99.90;;;;;;5049825;28;20063;-66
2021/10/26 09:52:33;;;;;;;30.27;20.33;;;12.70;99.90;;;;;;5059160;28;20040;-66
2021/10/26 09:55:23;;;;;;;29.08;19.73;;;12.70;99.90;;;;;;5075102;27;20049;-66
2021/10/26 09:57:53;;;;;;;29.90;20.27;;;12.80;99.90;;;;;;5048130;28;20063;-66
2021/10/26 10:00:30;;;;;;;31.85;20.67;;;12.70;99.90;;;;;;5049899;28;20101;-66
2021/10/26 10:03:17;;;;;;;34.00;20.50;;;12.80;99.90;;;;;;5047551;28;20348;-66
2021/10/26 10:05:59;;;;;;;32.08;20.30;;;12.90;99.90;;;;;;5048591;28;20041;-66
2021/10/26 10:08:35;;;;;;;30.30;18.90;;;13.00;99.90;;;;;;5058705;28;20036;-66
2021/10/26 10:11:12;;;;;;;26.85;18.40;;;13.20;99.90;;;;;;5075957;27;20053;-66
2021/10/26 10:13:42;;;;;;;26.02;16.50;;;13.20;99.90;;;;;;5048684;28;20036;-66
2021/10/26 10:16:15;;;;;;;24.85;16.08;;;13.30;99.90;;;;;;5047434;28;20089;-66
2021/10/26 10:18:45;;;;;;;25.08;14.25;;;13.30;99.90;;;;;;5044868;28;20040;-66
2021/10/26 10:21:14;;;;;;;24.92;14.98;;;13.30;99.90;;;;;;5042803;28;20110;-66
2021/10/26 10:23:44;;;;;;;26.90;15.02;;;13.40;99.90;;;;;;5049751;28;20051;-66
2021/10/26 10:26:14;;;;;;;23.52;14.77;;;13.40;99.90;;;;;;5049473;28;20044;-66
2021/10/26 10:28:45;;;;;;;20.85;15.07;;;13.40;99.90;;;;;;5045847;28;20082;-66
2021/10/26 10:31:16;;;;;;;24.42;14.45;;;13.50;99.90;;;;;;5049156;28;20055;-66
2021/10/26 10:33:49;;;;;;;25.35;14.70;;;13.60;99.90;;;;;;5046131;28;21978;-66
2021/10/26 10:36:19;;;;;;;24.13;13.65;;;13.80;99.90;;;;;;5047457;28;20040;-66
2021/10/26 10:38:45;;;;;;;17.55;12.45;;;14.00;99.90;;;;;;5047475;28;20036;-66
2021/10/26 10:41:31;;;;;;;25.27;14.50;;;14.10;99.90;;;;;;5047617;28;20032;-66
2021/10/26 10:43:59;;;;;;;19.77;13.30;;;14.20;99.90;;;;;;5047472;28;20053;-66
2021/10/26 10:46:43;;;;;;;18.90;12.15;;;14.30;99.90;;;;;;5049451;28;20052;-66
2021/10/26 10:49:22;;;;;;;18.42;10.18;;;14.50;99.90;;;;;;5044992;28;20066;-66
2021/10/26 10:52:19;;;;;;;18.73;12.07;;;14.50;99.90;;;;;;5046096;28;20044;-66
2021/10/26 10:57:36;;;;;;;16.35;8.98;;;14.70;99.90;;;;;;5076009;28;19924;-66
2021/10/26 11:00:21;;;;;;;13.57;9.52;;;14.60;99.90;;;;;;5049469;28;20159;-66
2021/10/26 11:02:51;;;;;;;14.50;9.20;;;14.60;99.90;;;;;;5047906;28;20055;-66
2021/10/26 11:05:33;;;;;;;19.67;9.88;;;14.50;99.90;;;;;;5049219;28;20093;-66
2021/10/26 11:08:06;;;;;;;17.90;11.05;;;14.40;99.90;;;;;;5047454;28;20147;-66
2021/10/26 11:10:51;;;;;;;17.45;9.30;;;14.40;99.90;;;;;;5086682;28;20079;-66
2021/10/26 11:13:26;;;;;;;17.77;9.63;;;14.30;99.90;;;;;;5081507;28;20126;-66
2021/10/26 11:15:53;;;;;;;18.50;9.10;;;14.30;99.90;;;;;;5079803;28;20437;-66
2021/10/26 11:18:48;;;;;;;14.80;8.25;;;14.20;99.90;;;;;;5047822;28;20044;-66
2021/10/26 11:21:25;;;;;;;18.52;8.85;;;14.20;99.90;;;;;;5048320;28;20044;-66
2021/10/26 11:23:57;;;;;;;15.27;8.38;;;14.20;99.90;;;;;;5048484;28;20043;-66
2021/10/26 11:26:35;;;;;;;14.57;8.23;;;14.10;99.90;;;;;;5047800;28;22028;-66
2021/10/26 11:29:01;;;;;;;13.63;8.20;;;14.10;99.90;;;;;;5049919;28;20048;-66
2021/10/26 11:31:31;;;;;;;15.93;8.13;;;14.10;99.90;;;;;;5049575;28;20037;-66
2021/10/26 11:34:06;;;;;;;15.18;9.80;;;14.00;99.90;;;;;;5047111;28;20125;-66
2021/10/26 11:36:33;;;;;;;13.90;8.93;;;14.00;99.90;;;;;;5045457;28;20151;-66
2021/10/26 11:39:03;;;;;;;18.52;9.55;;;14.00;99.90;;;;;;5046506;28;20109;-66
2021/10/26 11:41:35;;;;;;;13.85;9.05;;;14.00;99.90;;;;;;5045609;28;20044;-66
2021/10/26 11:44:11;;;;;;;20.58;9.63;;;14.00;99.90;;;;;;5046914;28;20051;-66
2021/10/26 11:46:38;;;;;;;16.38;9.70;;;13.90;99.90;;;;;;5075421;28;20056;-66
2021/10/26 11:49:06;;;;;;;16.15;8.65;;;14.00;99.90;;;;;;5047573;28;20069;-66
2021/10/26 11:51:42;;;;;;;18.13;9.63;;;14.00;99.90;;;;;;5044724;28;20048;-66
2021/10/26 11:54:14;;;;;;;;;;;14.00;99.90;;;;;;5048810;28;20047;-66
2021/10/26 11:56:57;;;;;;;13.82;9.45;;;14.00;99.90;;;;;;5044932;28;20381;-66
2021/10/26 11:59:24;;;;;;;17.25;9.40;;;14.00;99.90;;;;;;5047560;28;20106;-66
2021/10/26 12:01:59;;;;;;;24.02;10.55;;;14.00;99.90;;;;;;5046232;28;20063;-66
2021/10/26 12:04:29;;;;;;;13.55;9.45;;;13.90;99.90;;;;;;5047421;28;20048;-66
2021/10/26 12:07:01;;;;;;;18.55;11.55;;;13.90;99.90;;;;;;5046668;28;20052;-66
2021/10/26 12:09:45;;;;;;;13.85;10.63;;;13.90;99.90;;;;;;5056715;28;20044;-66
2021/10/26 12:12:13;;;;;;;16.33;11.57;;;13.90;99.90;;;;;;5044814;28;20048;-66
2021/10/26 12:14:41;;;;;;;19.33;12.27;;;13.90;99.90;;;;;;5043868;28;20041;-66
2021/10/26 12:17:28;;;;;;;24.70;13.25;;;13.90;99.90;;;;;;5046284;28;20040;-66
2021/10/26 12:20:24;;;;;;;24.58;14.20;;;13.90;99.90;;;;;;5046115;28;20078;-66
2021/10/26 12:22:54;;;;;;;20.38;12.82;;;13.90;99.90;;;;;;5046210;28;20426;-66
2021/10/26 12:25:24;;;;;;;20.33;13.60;;;13.90;99.90;;;;;;5061478;28;20041;-66
2021/10/26 12:27:56;;;;;;;19.95;15.10;;;13.90;99.90;;;;;;5043518;28;20052;-66
2021/10/26 12:30:30;;;;;;;22.42;14.95;;;13.80;99.90;;;;;;5076915;28;20045;-66
2021/10/26 12:33:02;;;;;;;20.70;15.87;;;13.80;99.90;;;;;;5050216;28;20040;-66
2021/10/26 12:35:40;;;;;;;24.83;17.17;;;13.70;99.90;;;;;;5046691;28;20044;-66
2021/10/26 12:38:29;;;;;;;19.83;15.77;;;13.80;99.90;;;;;;5048024;28;20056;-66
2021/10/26 12:41:11;;;;;;;28.45;18.05;;;13.70;99.90;;;;;;5050353;28;20052;-66
2021/10/26 12:43:37;;;;;;;23.95;16.00;;;13.70;99.90;;;;;;5048536;28;21575;-66
2021/10/26 12:46:19;;;;;;;23.00;17.67;;;13.70;99.90;;;;;;5052681;28;20048;-66